Tylersburg, PA (16361)

1:27 PM EDT on September 01, 2015 (GMT -0400)
Penn Oaks Campground | | Change Station
CLOSE
Current Station
Personal Weather Station
Location: Leeper, PA
Elevation: 1621 ft
Nearby Weather Stations

Elev 1621 ft 41.37 °N, 79.29 °W | Updated 0 second ago

Partly Cloudy
Partly Cloudy
79.5 °F
Feels Like 82 °F
N
2.9
Wind Variable Wind from West
Gusts 9.0 mph

Today
High -- | Low -- °F
--% Chance of Precip.
Yesterday
High -- | Low -- °F
Precip. -- in
6:43 AM 7:50 PM
Waning Gibbous, 87% visible
Pressure 30.10 in
Visibility 7.0 miles
Clouds Mostly Cloudy 3100 ft
Heat Index 82 °F
Dew Point 66 °F
Humidity 64%
Rainfall 0.00 in
Snow Depth Not available.
UV 5 out of 12
Pollen 10.40 out of 12
Air Quality Not available.
Flu Activity Not available.
METAR KDUJ 011653Z AUTO 32006KT 7SM BKN031 27/17 A3014 RMK AO2 SLP192 T02720172
Pressure 30.10 in
Visibility 7.0 miles
Clouds Mostly Cloudy 3100 ft
Heat Index 82 °F
Dew Point 66 °F
Humidity 64%
Rainfall 0.00 in
Snow Depth Not available.
UV 5 out of 12
Pollen 10.40 out of 12
Air Quality Not available.
Flu Activity Not available.
METAR KDUJ 011653Z AUTO 32006KT 7SM BKN031 27/17 A3014 RMK AO2 SLP192 T02720172

10-Day Weather Forecast

×

Almanac

Astronomy

Sep. 01, 2015 Rise Set
Actual Time
Civil Twilight
Nautical Twilight
Astronomical Twilight
Moon
Length of Visible Light
Length of Day
Tomorrow will be .
, % of the Moon is Illuminated

Today's Extremes

State Highs State Lows

Community

WunderPhotos

Upload Photos

1,851,567 photos uploaded!

WunderBlogs® & News

Nearby

Air Quality

  Air Quality AQ Index Pollutant
Not available.

Snow Depth

Station Depth Elevation

Earthquake Activity

City Distance Mag. Time & Date
Minimum magnitude displayed is 2.5.

Coastal Water Temperatures

Place Temperature

Stations

Nearby Weather Stations

Station Location Temp. Windchill Dew Point Humidity Wind Precip. Elev Updated Type